Terminal Aerodrome Forecast
Issued by NWS

Home | Current Version | Previous Version | Text Only | Print | Product List | Glossary On
Versions: 1 2 3 4 5 6 7 8 9 10 11 12 13 14 15 16 17 18 19 20
000
FTUS43 KAPX 300520
TAFPLN
TAF
KPLN 300520Z 3006/0106 05006KT P6SM SCT040 OVC080
     FM301200 07008KT P6SM BKN080
     FM010000 08007KT P6SM SCT100
     FM010200 08007KT P6SM BKN100=

USA.gov is the U.S. government's official web portal to all federal, state and local government web resources and services.